sensor_id;sensor_type;location;lat;lon;timestamp;pressure;altitude;pressure_sealevel;temperature;humidity
23677;BME280;31493;49.058;12.190;2023-07-20T00:01:37;95844.56;;;17.94;69.81
23677;BME280;31493;49.058;12.190;2023-07-20T00:04:04;95854.56;;;18.07;69.76
23677;BME280;31493;49.058;12.190;2023-07-20T00:06:31;95848.00;;;17.95;70.52
23677;BME280;31493;49.058;12.190;2023-07-20T00:08:58;95848.50;;;18.06;70.22
23677;BME280;31493;49.058;12.190;2023-07-20T00:11:26;95842.44;;;17.98;69.86
23677;BME280;31493;49.058;12.190;2023-07-20T00:13:54;95848.47;;;17.90;70.94
23677;BME280;31493;49.058;12.190;2023-07-20T00:16:22;95846.53;;;17.92;70.87
23677;BME280;31493;49.058;12.190;2023-07-20T00:18:49;95850.59;;;17.87;70.93
23677;BME280;31493;49.058;12.190;2023-07-20T00:21:16;95844.50;;;17.78;71.48
23677;BME280;31493;49.058;12.190;2023-07-20T00:23:43;95848.97;;;17.94;70.91
23677;BME280;31493;49.058;12.190;2023-07-20T00:26:10;95835.34;;;17.90;71.01
23677;BME280;31493;49.058;12.190;2023-07-20T00:28:37;95838.84;;;17.99;70.76
23677;BME280;31493;49.058;12.190;2023-07-20T00:31:04;95845.06;;;18.06;70.12
23677;BME280;31493;49.058;12.190;2023-07-20T00:33:33;95840.81;;;18.05;70.02
23677;BME280;31493;49.058;12.190;2023-07-20T00:36:00;95840.94;;;17.95;70.50
23677;BME280;31493;49.058;12.190;2023-07-20T00:38:28;95836.16;;;17.83;70.65
23677;BME280;31493;49.058;12.190;2023-07-20T00:40:55;95835.53;;;17.89;70.50
23677;BME280;31493;49.058;12.190;2023-07-20T00:43:22;95836.00;;;17.76;70.15
23677;BME280;31493;49.058;12.190;2023-07-20T00:45:49;95842.69;;;17.70;70.19
23677;BME280;31493;49.058;12.190;2023-07-20T00:48:16;95833.03;;;17.71;70.81
23677;BME280;31493;49.058;12.190;2023-07-20T00:50:45;95831.91;;;17.82;70.62
23677;BME280;31493;49.058;12.190;2023-07-20T00:53:14;95842.47;;;17.64;70.13
23677;BME280;31493;49.058;12.190;2023-07-20T00:55:41;95856.56;;;17.55;70.33
23677;BME280;31493;49.058;12.190;2023-07-20T00:58:09;95849.63;;;17.45;70.60
23677;BME280;31493;49.058;12.190;2023-07-20T01:00:36;95854.06;;;17.53;70.66
23677;BME280;31493;49.058;12.190;2023-07-20T01:03:03;95841.94;;;17.52;70.82
23677;BME280;31493;49.058;12.190;2023-07-20T01:05:36;95860.81;;;17.64;70.76
23677;BME280;31493;49.058;12.190;2023-07-20T01:08:12;95858.84;;;17.58;71.16
23677;BME280;31493;49.058;12.190;2023-07-20T01:10:44;95851.13;;;17.48;70.64
23677;BME280;31493;49.058;12.190;2023-07-20T01:13:14;95857.84;;;17.50;71.10
23677;BME280;31493;49.058;12.190;2023-07-20T01:15:41;95861.38;;;17.41;70.98
23677;BME280;31493;49.058;12.190;2023-07-20T01:18:08;95848.97;;;17.43;71.35
23677;BME280;31493;49.058;12.190;2023-07-20T01:20:36;95848.63;;;17.46;71.18
23677;BME280;31493;49.058;12.190;2023-07-20T01:23:36;95847.56;;;17.65;70.88
23677;BME280;31493;49.058;12.190;2023-07-20T01:26:27;95850.50;;;17.62;71.09
23677;BME280;31493;49.058;12.190;2023-07-20T01:29:12;95845.16;;;17.72;71.22
23677;BME280;31493;49.058;12.190;2023-07-20T01:31:44;95833.25;;;17.51;71.17
23677;BME280;31493;49.058;12.190;2023-07-20T01:34:12;95828.81;;;17.44;71.16
23677;BME280;31493;49.058;12.190;2023-07-20T01:36:42;95826.47;;;17.33;71.21
23677;BME280;31493;49.058;12.190;2023-07-20T01:39:10;95821.88;;;17.35;71.66
23677;BME280;31493;49.058;12.190;2023-07-20T01:41:38;95814.38;;;17.40;71.81
23677;BME280;31493;49.058;12.190;2023-07-20T01:44:05;95827.00;;;17.36;71.97
23677;BME280;31493;49.058;12.190;2023-07-20T01:46:32;95832.53;;;17.33;71.88
23677;BME280;31493;49.058;12.190;2023-07-20T01:49:00;95829.91;;;17.33;71.28
23677;BME280;31493;49.058;12.190;2023-07-20T01:51:27;95838.22;;;17.20;71.46
23677;BME280;31493;49.058;12.190;2023-07-20T01:53:54;95835.41;;;17.14;71.95
23677;BME280;31493;49.058;12.190;2023-07-20T01:56:21;95838.41;;;17.27;71.91
23677;BME280;31493;49.058;12.190;2023-07-20T01:58:48;95849.59;;;17.37;71.71
23677;BME280;31493;49.058;12.190;2023-07-20T02:01:15;95846.47;;;17.34;71.84
23677;BME280;31493;49.058;12.190;2023-07-20T02:03:42;95835.50;;;17.38;71.77
23677;BME280;31493;49.058;12.190;2023-07-20T02:06:11;95839.13;;;17.37;71.70
23677;BME280;31493;49.058;12.190;2023-07-20T02:08:38;95852.50;;;17.34;72.02
23677;BME280;31493;49.058;12.190;2023-07-20T02:11:05;95845.44;;;17.26;72.41
23677;BME280;31493;49.058;12.190;2023-07-20T02:13:32;95845.97;;;17.30;71.86
23677;BME280;31493;49.058;12.190;2023-07-20T02:15:59;95851.75;;;17.08;72.28
23677;BME280;31493;49.058;12.190;2023-07-20T02:18:26;95853.44;;;17.17;72.84
23677;BME280;31493;49.058;12.190;2023-07-20T02:20:53;95860.53;;;16.98;72.48
23677;BME280;31493;49.058;12.190;2023-07-20T02:23:22;95869.69;;;16.94;72.80
23677;BME280;31493;49.058;12.190;2023-07-20T02:25:49;95851.00;;;16.97;73.15
23677;BME280;31493;49.058;12.190;2023-07-20T02:28:16;95848.31;;;17.07;73.25
23677;BME280;31493;49.058;12.190;2023-07-20T02:30:43;95850.34;;;17.21;73.17
23677;BME280;31493;49.058;12.190;2023-07-20T02:33:10;95844.63;;;17.26;72.58
23677;BME280;31493;49.058;12.190;2023-07-20T02:35:37;95843.34;;;17.30;72.58
23677;BME280;31493;49.058;12.190;2023-07-20T02:38:04;95859.88;;;17.31;72.52
23677;BME280;31493;49.058;12.190;2023-07-20T02:40:34;95854.16;;;17.35;72.30
23677;BME280;31493;49.058;12.190;2023-07-20T02:43:01;95851.34;;;17.29;72.36
23677;BME280;31493;49.058;12.190;2023-07-20T02:45:28;95867.38;;;17.25;72.70
23677;BME280;31493;49.058;12.190;2023-07-20T02:47:55;95856.09;;;17.25;73.01
23677;BME280;31493;49.058;12.190;2023-07-20T02:50:22;95859.56;;;17.34;72.98
23677;BME280;31493;49.058;12.190;2023-07-20T02:52:49;95866.44;;;17.35;73.01
23677;BME280;31493;49.058;12.190;2023-07-20T02:55:16;95871.69;;;17.35;72.94
23677;BME280;31493;49.058;12.190;2023-07-20T02:57:45;95882.56;;;17.48;72.94
23677;BME280;31493;49.058;12.190;2023-07-20T03:00:13;95873.38;;;17.44;72.90
23677;BME280;31493;49.058;12.190;2023-07-20T03:02:42;95870.59;;;17.53;72.62
23677;BME280;31493;49.058;12.190;2023-07-20T03:05:09;95874.28;;;17.61;72.28
23677;BME280;31493;49.058;12.190;2023-07-20T03:07:36;95880.28;;;17.53;72.51
23677;BME280;31493;49.058;12.190;2023-07-20T03:10:04;95875.47;;;17.40;72.59
23677;BME280;31493;49.058;12.190;2023-07-20T03:12:33;95851.94;;;17.48;72.78
23677;BME280;31493;49.058;12.190;2023-07-20T03:15:02;95862.28;;;17.58;72.26
23677;BME280;31493;49.058;12.190;2023-07-20T03:17:29;95856.16;;;17.41;72.27
23677;BME280;31493;49.058;12.190;2023-07-20T03:19:56;95862.88;;;17.36;72.24
23677;BME280;31493;49.058;12.190;2023-07-20T03:22:23;95866.75;;;17.32;72.15
23677;BME280;31493;49.058;12.190;2023-07-20T03:24:50;95876.25;;;17.33;72.25
23677;BME280;31493;49.058;12.190;2023-07-20T03:27:18;95873.00;;;17.39;72.33
23677;BME280;31493;49.058;12.190;2023-07-20T03:29:45;95868.25;;;17.34;72.23
23677;BME280;31493;49.058;12.190;2023-07-20T03:32:13;95877.59;;;17.37;72.74
23677;BME280;31493;49.058;12.190;2023-07-20T03:34:40;95873.38;;;17.44;72.64
23677;BME280;31493;49.058;12.190;2023-07-20T03:37:07;95875.03;;;17.53;71.96
23677;BME280;31493;49.058;12.190;2023-07-20T03:39:34;95876.38;;;17.57;71.78
23677;BME280;31493;49.058;12.190;2023-07-20T03:42:01;95871.13;;;17.57;72.07
23677;BME280;31493;49.058;12.190;2023-07-20T03:44:28;95878.81;;;17.50;72.36
23677;BME280;31493;49.058;12.190;2023-07-20T03:46:55;95877.81;;;17.51;72.27
23677;BME280;31493;49.058;12.190;2023-07-20T03:49:24;95878.81;;;17.59;72.09
23677;BME280;31493;49.058;12.190;2023-07-20T03:51:51;95868.22;;;17.60;71.79
23677;BME280;31493;49.058;12.190;2023-07-20T03:54:18;95866.06;;;17.56;72.07
23677;BME280;31493;49.058;12.190;2023-07-20T03:56:46;95879.34;;;17.62;71.54
23677;BME280;31493;49.058;12.190;2023-07-20T03:59:13;95881.31;;;17.60;71.04
23677;BME280;31493;49.058;12.190;2023-07-20T04:01:40;95879.72;;;17.67;70.81
23677;BME280;31493;49.058;12.190;2023-07-20T04:04:07;95889.66;;;17.56;70.78
23677;BME280;31493;49.058;12.190;2023-07-20T04:06:36;95889.84;;;17.62;70.94
23677;BME280;31493;49.058;12.190;2023-07-20T04:09:03;95900.06;;;17.73;70.86
23677;BME280;31493;49.058;12.190;2023-07-20T04:11:31;95898.00;;;17.59;70.83
23677;BME280;31493;49.058;12.190;2023-07-20T04:13:58;95892.91;;;17.49;71.58
23677;BME280;31493;49.058;12.190;2023-07-20T04:16:25;95895.69;;;17.48;71.53
23677;BME280;31493;49.058;12.190;2023-07-20T04:18:54;95904.19;;;17.50;71.86
23677;BME280;31493;49.058;12.190;2023-07-20T04:21:21;95901.84;;;17.39;71.85
23677;BME280;31493;49.058;12.190;2023-07-20T04:23:50;95903.56;;;17.56;72.00
23677;BME280;31493;49.058;12.190;2023-07-20T04:26:17;95911.69;;;17.45;71.99
23677;BME280;31493;49.058;12.190;2023-07-20T04:28:44;95908.97;;;17.55;71.74
23677;BME280;31493;49.058;12.190;2023-07-20T04:31:11;95913.66;;;17.77;71.16
23677;BME280;31493;49.058;12.190;2023-07-20T04:33:39;95917.09;;;17.77;70.92
23677;BME280;31493;49.058;12.190;2023-07-20T04:36:06;95917.59;;;17.73;70.84
23677;BME280;31493;49.058;12.190;2023-07-20T04:38:34;95911.53;;;17.72;70.94
23677;BME280;31493;49.058;12.190;2023-07-20T04:41:03;95914.75;;;17.66;71.53
23677;BME280;31493;49.058;12.190;2023-07-20T04:43:30;95908.44;;;17.43;71.03
23677;BME280;31493;49.058;12.190;2023-07-20T04:45:57;95906.00;;;17.84;70.83
23677;BME280;31493;49.058;12.190;2023-07-20T04:48:24;95910.94;;;17.95;70.51
23677;BME280;31493;49.058;12.190;2023-07-20T04:50:51;95913.84;;;17.75;70.52
23677;BME280;31493;49.058;12.190;2023-07-20T04:53:18;95911.69;;;17.71;71.39
23677;BME280;31493;49.058;12.190;2023-07-20T04:55:49;95918.34;;;17.91;70.77
23677;BME280;31493;49.058;12.190;2023-07-20T04:58:20;95923.75;;;17.98;71.10
23677;BME280;31493;49.058;12.190;2023-07-20T05:00:48;95933.91;;;18.01;69.69
23677;BME280;31493;49.058;12.190;2023-07-20T05:03:15;95923.81;;;18.30;68.19
23677;BME280;31493;49.058;12.190;2023-07-20T05:05:42;95921.66;;;18.10;68.79
23677;BME280;31493;49.058;12.190;2023-07-20T05:08:09;95918.06;;;18.11;69.14
23677;BME280;31493;49.058;12.190;2023-07-20T05:10:36;95912.63;;;18.12;68.49
23677;BME280;31493;49.058;12.190;2023-07-20T05:13:03;95921.66;;;18.18;68.86
23677;BME280;31493;49.058;12.190;2023-07-20T05:15:33;95926.94;;;18.26;68.68
23677;BME280;31493;49.058;12.190;2023-07-20T05:18:01;95913.81;;;18.26;69.06
23677;BME280;31493;49.058;12.190;2023-07-20T05:20:28;95914.50;;;18.28;68.69
23677;BME280;31493;49.058;12.190;2023-07-20T05:22:55;95934.56;;;17.95;69.17
23677;BME280;31493;49.058;12.190;2023-07-20T05:25:22;95939.22;;;18.09;70.48
23677;BME280;31493;49.058;12.190;2023-07-20T05:27:49;95926.00;;;17.85;70.72
23677;BME280;31493;49.058;12.190;2023-07-20T05:30:16;95936.28;;;17.78;70.71
23677;BME280;31493;49.058;12.190;2023-07-20T05:32:44;95920.91;;;17.83;71.46
23677;BME280;31493;49.058;12.190;2023-07-20T05:35:13;95929.53;;;18.10;70.08
23677;BME280;31493;49.058;12.190;2023-07-20T05:37:42;95925.34;;;17.83;70.25
23677;BME280;31493;49.058;12.190;2023-07-20T05:40:10;95932.25;;;17.92;70.76
23677;BME280;31493;49.058;12.190;2023-07-20T05:42:37;95931.63;;;17.98;70.49
23677;BME280;31493;49.058;12.190;2023-07-20T05:45:05;95940.75;;;17.86;71.04
23677;BME280;31493;49.058;12.190;2023-07-20T05:47:33;95938.50;;;17.91;71.43
23677;BME280;31493;49.058;12.190;2023-07-20T05:50:03;95936.06;;;17.97;71.98
23677;BME280;31493;49.058;12.190;2023-07-20T05:52:30;95942.31;;;18.13;70.96
23677;BME280;31493;49.058;12.190;2023-07-20T05:54:57;95947.72;;;18.11;70.41
23677;BME280;31493;49.058;12.190;2023-07-20T05:57:24;95948.72;;;18.18;71.38
23677;BME280;31493;49.058;12.190;2023-07-20T05:59:51;95948.91;;;18.33;71.50
23677;BME280;31493;49.058;12.190;2023-07-20T06:02:18;95954.16;;;18.33;72.06
23677;BME280;31493;49.058;12.190;2023-07-20T06:04:45;95954.38;;;18.48;71.26
23677;BME280;31493;49.058;12.190;2023-07-20T06:07:13;95957.63;;;18.33;71.69
23677;BME280;31493;49.058;12.190;2023-07-20T06:09:41;95961.38;;;18.31;72.07
23677;BME280;31493;49.058;12.190;2023-07-20T06:12:08;95954.53;;;18.46;71.43
23677;BME280;31493;49.058;12.190;2023-07-20T06:14:35;95955.56;;;18.62;71.03
23677;BME280;31493;49.058;12.190;2023-07-20T06:17:03;95958.19;;;18.62;71.51
23677;BME280;31493;49.058;12.190;2023-07-20T06:19:30;95973.97;;;18.19;72.68
23677;BME280;31493;49.058;12.190;2023-07-20T06:21:57;95969.06;;;18.16;73.04
23677;BME280;31493;49.058;12.190;2023-07-20T06:24:25;95964.34;;;18.36;72.86
23677;BME280;31493;49.058;12.190;2023-07-20T06:26:52;95963.03;;;18.32;71.96
23677;BME280;31493;49.058;12.190;2023-07-20T06:29:19;95964.06;;;18.55;72.52
23677;BME280;31493;49.058;12.190;2023-07-20T06:31:46;95963.88;;;18.41;72.61
23677;BME280;31493;49.058;12.190;2023-07-20T06:34:13;95970.19;;;18.05;73.73
23677;BME280;31493;49.058;12.190;2023-07-20T06:36:40;95966.28;;;17.75;74.23
23677;BME280;31493;49.058;12.190;2023-07-20T06:39:07;95966.94;;;18.20;73.39
23677;BME280;31493;49.058;12.190;2023-07-20T06:41:35;95963.72;;;18.34;73.20
23677;BME280;31493;49.058;12.190;2023-07-20T06:44:03;95955.66;;;18.27;72.76
23677;BME280;31493;49.058;12.190;2023-07-20T06:46:30;95957.66;;;18.50;72.23
23677;BME280;31493;49.058;12.190;2023-07-20T06:48:56;95963.97;;;19.14;68.34
23677;BME280;31493;49.058;12.190;2023-07-20T06:51:23;95966.09;;;19.10;69.17
23677;BME280;31493;49.058;12.190;2023-07-20T06:53:50;95970.69;;;19.08;68.52
23677;BME280;31493;49.058;12.190;2023-07-20T06:56:17;95970.50;;;18.69;69.26
23677;BME280;31493;49.058;12.190;2023-07-20T06:58:46;95974.78;;;19.27;68.16
23677;BME280;31493;49.058;12.190;2023-07-20T07:01:13;95968.38;;;19.46;67.13
23677;BME280;31493;49.058;12.190;2023-07-20T07:03:41;95975.28;;;19.15;67.27
23677;BME280;31493;49.058;12.190;2023-07-20T07:06:09;95964.44;;;19.09;67.34
23677;BME280;31493;49.058;12.190;2023-07-20T07:08:36;95962.94;;;19.23;67.44
23677;BME280;31493;49.058;12.190;2023-07-20T07:11:03;95977.91;;;19.39;66.08
23677;BME280;31493;49.058;12.190;2023-07-20T07:13:31;95966.19;;;19.66;64.80
23677;BME280;31493;49.058;12.190;2023-07-20T07:15:59;95973.94;;;19.35;64.63
23677;BME280;31493;49.058;12.190;2023-07-20T07:18:26;95970.66;;;19.57;65.39
23677;BME280;31493;49.058;12.190;2023-07-20T07:20:53;95961.13;;;19.24;63.48
23677;BME280;31493;49.058;12.190;2023-07-20T07:23:20;95977.41;;;19.35;62.74
23677;BME280;31493;49.058;12.190;2023-07-20T07:25:47;95980.03;;;19.27;63.39
23677;BME280;31493;49.058;12.190;2023-07-20T07:28:15;95978.66;;;19.72;61.56
23677;BME280;31493;49.058;12.190;2023-07-20T07:30:42;95968.28;;;19.87;59.95
23677;BME280;31493;49.058;12.190;2023-07-20T07:33:10;95969.44;;;19.68;58.96
23677;BME280;31493;49.058;12.190;2023-07-20T07:35:38;95986.91;;;19.61;60.21
23677;BME280;31493;49.058;12.190;2023-07-20T07:38:05;95976.38;;;19.69;61.10
23677;BME280;31493;49.058;12.190;2023-07-20T07:40:32;95981.78;;;19.67;60.88
23677;BME280;31493;49.058;12.190;2023-07-20T07:42:59;95981.78;;;19.67;61.96
23677;BME280;31493;49.058;12.190;2023-07-20T07:45:26;95990.69;;;19.58;61.80
23677;BME280;31493;49.058;12.190;2023-07-20T07:47:54;95977.53;;;19.42;60.77
23677;BME280;31493;49.058;12.190;2023-07-20T07:50:22;95981.28;;;19.72;60.40
23677;BME280;31493;49.058;12.190;2023-07-20T07:52:49;95986.28;;;20.06;59.44
23677;BME280;31493;49.058;12.190;2023-07-20T07:55:16;95984.34;;;19.92;59.22
23677;BME280;31493;49.058;12.190;2023-07-20T07:57:43;95982.53;;;19.92;59.08
23677;BME280;31493;49.058;12.190;2023-07-20T08:00:11;95986.81;;;19.93;59.05
23677;BME280;31493;49.058;12.190;2023-07-20T08:02:41;95984.78;;;20.04;58.07
23677;BME280;31493;49.058;12.190;2023-07-20T08:05:08;95992.63;;;20.20;57.40
23677;BME280;31493;49.058;12.190;2023-07-20T08:07:38;95981.28;;;20.19;57.39
23677;BME280;31493;49.058;12.190;2023-07-20T08:10:06;95984.84;;;20.35;57.67
23677;BME280;31493;49.058;12.190;2023-07-20T08:12:34;95985.81;;;20.65;55.91
23677;BME280;31493;49.058;12.190;2023-07-20T08:15:01;95991.78;;;20.59;54.83
23677;BME280;31493;49.058;12.190;2023-07-20T08:17:28;95993.44;;;21.06;53.82
23677;BME280;31493;49.058;12.190;2023-07-20T08:19:55;95988.88;;;20.77;52.41
23677;BME280;31493;49.058;12.190;2023-07-20T08:22:22;95999.47;;;20.68;53.08
23677;BME280;31493;49.058;12.190;2023-07-20T08:24:50;95995.34;;;20.43;54.47
23677;BME280;31493;49.058;12.190;2023-07-20T08:27:17;95993.88;;;20.40;53.59
23677;BME280;31493;49.058;12.190;2023-07-20T08:29:44;95999.25;;;20.47;52.22
23677;BME280;31493;49.058;12.190;2023-07-20T08:32:11;95994.50;;;20.73;50.37
23677;BME280;31493;49.058;12.190;2023-07-20T08:34:39;95995.78;;;21.00;49.57
23677;BME280;31493;49.058;12.190;2023-07-20T08:37:06;95989.00;;;21.44;50.53
23677;BME280;31493;49.058;12.190;2023-07-20T08:39:36;95985.72;;;21.04;49.75
23677;BME280;31493;49.058;12.190;2023-07-20T08:42:05;95997.84;;;21.51;50.48
23677;BME280;31493;49.058;12.190;2023-07-20T08:44:33;95994.44;;;21.95;48.30
23677;BME280;31493;49.058;12.190;2023-07-20T08:47:01;95996.50;;;21.70;48.27
23677;BME280;31493;49.058;12.190;2023-07-20T08:49:29;96004.59;;;21.16;48.51
23677;BME280;31493;49.058;12.190;2023-07-20T08:51:58;96008.53;;;20.66;47.90
23677;BME280;31493;49.058;12.190;2023-07-20T08:54:28;96017.09;;;20.37;50.81
23677;BME280;31493;49.058;12.190;2023-07-20T08:57:01;95997.47;;;20.70;50.58
23677;BME280;31493;49.058;12.190;2023-07-20T08:59:30;96007.16;;;21.01;48.36
23677;BME280;31493;49.058;12.190;2023-07-20T09:01:58;96001.84;;;21.47;48.64
23677;BME280;31493;49.058;12.190;2023-07-20T09:04:25;96001.50;;;21.65;49.24
23677;BME280;31493;49.058;12.190;2023-07-20T09:06:53;95989.28;;;21.49;46.93
23677;BME280;31493;49.058;12.190;2023-07-20T09:09:20;95999.41;;;21.60;45.06
23677;BME280;31493;49.058;12.190;2023-07-20T09:11:47;96002.94;;;21.15;44.76
23677;BME280;31493;49.058;12.190;2023-07-20T09:14:15;96003.38;;;21.41;46.09
23677;BME280;31493;49.058;12.190;2023-07-20T09:16:52;95997.22;;;21.49;44.37
23677;BME280;31493;49.058;12.190;2023-07-20T09:19:19;96009.97;;;20.99;46.45
23677;BME280;31493;49.058;12.190;2023-07-20T09:21:46;95998.44;;;21.23;44.56
23677;BME280;31493;49.058;12.190;2023-07-20T09:24:13;95995.22;;;21.80;44.84
23677;BME280;31493;49.058;12.190;2023-07-20T09:26:41;95991.78;;;21.95;43.04
23677;BME280;31493;49.058;12.190;2023-07-20T09:29:09;95990.75;;;22.25;41.53
23677;BME280;31493;49.058;12.190;2023-07-20T09:31:37;95991.00;;;22.09;40.33
23677;BME280;31493;49.058;12.190;2023-07-20T09:34:05;95990.97;;;22.24;39.74
23677;BME280;31493;49.058;12.190;2023-07-20T09:36:34;95986.97;;;22.13;39.85
23677;BME280;31493;49.058;12.190;2023-07-20T09:39:02;95992.81;;;22.09;40.32
23677;BME280;31493;49.058;12.190;2023-07-20T09:41:29;95985.53;;;21.96;40.94
23677;BME280;31493;49.058;12.190;2023-07-20T09:43:57;95993.41;;;22.40;40.31
23677;BME280;31493;49.058;12.190;2023-07-20T09:46:24;95980.44;;;22.81;38.99
23677;BME280;31493;49.058;12.190;2023-07-20T09:48:54;95973.22;;;22.90;37.57
23677;BME280;31493;49.058;12.190;2023-07-20T09:51:23;95976.06;;;22.52;37.74
23677;BME280;31493;49.058;12.190;2023-07-20T09:53:52;95980.59;;;22.22;36.79
23677;BME280;31493;49.058;12.190;2023-07-20T09:56:21;95975.28;;;21.63;38.65
23677;BME280;31493;49.058;12.190;2023-07-20T09:58:48;95977.69;;;22.17;40.00
23677;BME280;31493;49.058;12.190;2023-07-20T10:01:18;95973.59;;;22.15;38.88
23677;BME280;31493;49.058;12.190;2023-07-20T10:03:47;95977.47;;;22.33;39.55
23677;BME280;31493;49.058;12.190;2023-07-20T10:06:18;95977.97;;;23.23;39.21
23677;BME280;31493;49.058;12.190;2023-07-20T10:08:49;95982.94;;;23.11;36.05
23677;BME280;31493;49.058;12.190;2023-07-20T10:11:21;95972.66;;;22.22;38.42
23677;BME280;31493;49.058;12.190;2023-07-20T10:13:51;95981.25;;;23.03;36.57
23677;BME280;31493;49.058;12.190;2023-07-20T10:16:22;95974.66;;;22.71;36.18
23677;BME280;31493;49.058;12.190;2023-07-20T10:18:55;95971.00;;;22.72;36.44
23677;BME280;31493;49.058;12.190;2023-07-20T10:21:26;95977.63;;;22.83;36.92
23677;BME280;31493;49.058;12.190;2023-07-20T10:23:55;95974.00;;;23.33;35.39
23677;BME280;31493;49.058;12.190;2023-07-20T10:26:23;95963.38;;;23.05;35.18
23677;BME280;31493;49.058;12.190;2023-07-20T10:28:50;95971.91;;;23.50;36.72
23677;BME280;31493;49.058;12.190;2023-07-20T10:31:18;95956.03;;;23.50;33.37
23677;BME280;31493;49.058;12.190;2023-07-20T10:33:45;95955.84;;;24.34;32.91
23677;BME280;31493;49.058;12.190;2023-07-20T10:36:13;95970.00;;;24.48;33.43
23677;BME280;31493;49.058;12.190;2023-07-20T10:38:41;95956.84;;;23.85;33.43
23677;BME280;31493;49.058;12.190;2023-07-20T10:41:20;95959.38;;;24.48;34.07
23677;BME280;31493;49.058;12.190;2023-07-20T10:43:48;95947.63;;;24.77;34.38
23677;BME280;31493;49.058;12.190;2023-07-20T10:46:34;95956.91;;;24.40;32.54
23677;BME280;31493;49.058;12.190;2023-07-20T10:49:02;95948.16;;;24.46;33.07
23677;BME280;31493;49.058;12.190;2023-07-20T10:51:30;95946.16;;;24.61;32.49
23677;BME280;31493;49.058;12.190;2023-07-20T10:54:08;95948.06;;;24.19;31.81
23677;BME280;31493;49.058;12.190;2023-07-20T10:56:36;95939.66;;;24.70;30.27
23677;BME280;31493;49.058;12.190;2023-07-20T10:59:17;95934.00;;;24.19;30.61
23677;BME280;31493;49.058;12.190;2023-07-20T11:01:46;95944.63;;;24.26;30.08
23677;BME280;31493;49.058;12.190;2023-07-20T11:04:15;95940.09;;;23.78;30.48
23677;BME280;31493;49.058;12.190;2023-07-20T11:06:44;95943.34;;;24.08;28.99
23677;BME280;31493;49.058;12.190;2023-07-20T11:09:12;95942.72;;;24.67;30.00
23677;BME280;31493;49.058;12.190;2023-07-20T11:11:43;95929.69;;;25.39;29.44
23677;BME280;31493;49.058;12.190;2023-07-20T11:14:20;95936.25;;;25.56;30.60
23677;BME280;31493;49.058;12.190;2023-07-20T11:16:48;95933.56;;;25.63;29.86
23677;BME280;31493;49.058;12.190;2023-07-20T11:19:17;95932.91;;;24.00;29.75
23677;BME280;31493;49.058;12.190;2023-07-20T11:21:45;95937.44;;;23.72;31.04
23677;BME280;31493;49.058;12.190;2023-07-20T11:24:13;95938.09;;;23.80;30.63
23677;BME280;31493;49.058;12.190;2023-07-20T11:26:43;95942.34;;;23.75;30.91
23677;BME280;31493;49.058;12.190;2023-07-20T11:29:11;95931.13;;;24.82;31.01
23677;BME280;31493;49.058;12.190;2023-07-20T11:31:38;95931.34;;;25.07;28.75
23677;BME280;31493;49.058;12.190;2023-07-20T11:34:07;95926.00;;;24.60;28.45
23677;BME280;31493;49.058;12.190;2023-07-20T11:36:34;95916.25;;;24.94;27.34
23677;BME280;31493;49.058;12.190;2023-07-20T11:39:01;95917.88;;;25.28;27.98
23677;BME280;31493;49.058;12.190;2023-07-20T11:41:31;95923.16;;;25.68;26.96
23677;BME280;31493;49.058;12.190;2023-07-20T11:44:00;95918.66;;;25.68;27.21
23677;BME280;31493;49.058;12.190;2023-07-20T11:46:28;95919.47;;;26.34;27.91
23677;BME280;31493;49.058;12.190;2023-07-20T11:48:57;95899.09;;;24.90;27.61
23677;BME280;31493;49.058;12.190;2023-07-20T11:51:26;95905.44;;;25.48;28.92
23677;BME280;31493;49.058;12.190;2023-07-20T11:53:54;95899.44;;;25.73;28.10
23677;BME280;31493;49.058;12.190;2023-07-20T11:56:22;95906.06;;;24.84;28.74
23677;BME280;31493;49.058;12.190;2023-07-20T11:58:49;95906.03;;;25.31;29.57
23677;BME280;31493;49.058;12.190;2023-07-20T12:01:18;95908.00;;;25.82;28.96
23677;BME280;31493;49.058;12.190;2023-07-20T12:03:47;95905.66;;;25.47;27.68
23677;BME280;31493;49.058;12.190;2023-07-20T12:06:14;95896.63;;;25.55;28.53
23677;BME280;31493;49.058;12.190;2023-07-20T12:08:42;95899.91;;;24.84;29.35
23677;BME280;31493;49.058;12.190;2023-07-20T12:11:10;95911.56;;;24.15;30.35
23677;BME280;31493;49.058;12.190;2023-07-20T12:13:38;95895.09;;;23.78;30.60
23677;BME280;31493;49.058;12.190;2023-07-20T12:16:10;95892.28;;;23.45;32.09
23677;BME280;31493;49.058;12.190;2023-07-20T12:18:40;95898.78;;;24.25;31.62
23677;BME280;31493;49.058;12.190;2023-07-20T12:21:07;95895.38;;;24.64;29.50
23677;BME280;31493;49.058;12.190;2023-07-20T12:23:35;95876.47;;;25.07;29.90
23677;BME280;31493;49.058;12.190;2023-07-20T12:26:06;95881.97;;;25.19;29.20
23677;BME280;31493;49.058;12.190;2023-07-20T12:28:33;95895.00;;;25.27;28.99
23677;BME280;31493;49.058;12.190;2023-07-20T12:31:02;95874.00;;;24.66;30.06
23677;BME280;31493;49.058;12.190;2023-07-20T12:33:29;95878.66;;;23.89;30.48
23677;BME280;31493;49.058;12.190;2023-07-20T12:35:59;95887.38;;;24.18;29.84
23677;BME280;31493;49.058;12.190;2023-07-20T12:38:27;95881.97;;;25.06;29.84
23677;BME280;31493;49.058;12.190;2023-07-20T12:40:54;95874.19;;;25.50;29.27
23677;BME280;31493;49.058;12.190;2023-07-20T12:43:22;95864.59;;;25.43;28.52
23677;BME280;31493;49.058;12.190;2023-07-20T12:45:48;95867.66;;;25.26;28.95
23677;BME280;31493;49.058;12.190;2023-07-20T12:48:15;95861.16;;;25.29;27.69
23677;BME280;31493;49.058;12.190;2023-07-20T12:50:43;95851.91;;;25.38;28.74
23677;BME280;31493;49.058;12.190;2023-07-20T12:53:11;95859.63;;;25.73;27.87
23677;BME280;31493;49.058;12.190;2023-07-20T12:55:38;95857.84;;;26.12;27.49